Huvudsida
METAR-TAF:

METAR-TAF

Flygplatser :

Mandalay International Airport

Mandalay, Burma

latitud: 21-59N, longitud: 096-06E, höjd: 74 m

Aktuellt väderrapport

Denna rapport gjordes för 44 minuter sedan, klockan 08:30 UTC
Vind 7 kt från sydost
Temperatur 26°C
Fuktighet 94%
Tryck 1002 hPa
Sikt: 6000 m
Brutna moln på en höjd av 2000 ft
Få moln på en höjd av 2500 ft, Cumulonimbus.
Brutna moln på en höjd av 11000 ft

METAR: VYMD 200830Z 13007KT 6000 BKN020 FEW025CB BKN110 26/25 Q1002

Tid: 15:44 (09:14 UTC)

Väderprognos

Denna rapport gjordes för 16 timmar och 14 minuter sedan, klockan 17:00 UTC
Prognos gäller från 19 kl. 18 UTC till 20 kl. 18 UTC
Vind 6 kt från sydost
Sikt: 7000 m
Spridda moln på en höjd av 2500 ft
Temporärt
från 19 kl. 18 UTC till 98 kl. 24 UTC
Vind 8 kt från syd
Sikt: 6000 m
Brutna moln på en höjd av 1800 ft
Få moln på en höjd av 2000 ft, Cumulonimbus.

TAF: VYMD 191700Z 1918/2018 13006KT 7000 SCT025 TEMPO 1918/9824 18008GKT 6000 BKN018 FEW020CB

Aktuella väderrapporter och prognoser från 4000 flygplatser (METAR- och TAF-rapporter).

De tillgängliga stationerna syns som gula och röda prickar på kartan.

För musen över prickarna för att se namnen på stationerna.

Klicka sedan för att få väderrapporter och prognoser.

För att ändra kartan: Klicka på de gröna knapparna med ett svart kors på för att zooma in; den gröna knappen med ett streck på för att zooma ut; eller på de gröna pilarna för angränsande kartor.


METAR-TAF: